createdAt,value
2018-11-07T00:00:05.148Z,1.10
2018-11-07T00:02:33.395Z,0.93
2018-11-07T00:05:01.824Z,0.97
2018-11-07T00:07:29.395Z,0.90
2018-11-07T00:09:56.891Z,1.07
2018-11-07T00:12:26.219Z,0.93
2018-11-07T00:14:53.936Z,1.00
2018-11-07T00:17:22.136Z,0.80
2018-11-07T00:19:49.691Z,0.80
2018-11-07T00:22:17.222Z,0.80
2018-11-07T00:24:45.811Z,1.20
2018-11-07T00:27:13.400Z,1.00
2018-11-07T00:29:41.049Z,1.37
2018-11-07T00:32:09.384Z,1.40
2018-11-07T00:34:37.013Z,1.60
2018-11-07T00:37:05.731Z,1.03
2018-11-07T00:39:34.216Z,1.30
2018-11-07T00:42:01.806Z,2.00
2018-11-07T00:44:29.384Z,1.80
2018-11-07T00:46:57.031Z,2.00
2018-11-07T00:49:25.198Z,2.10
2018-11-07T00:51:53.832Z,2.20
2018-11-07T00:54:22.465Z,3.23
2018-11-07T00:56:50.667Z,2.50
2018-11-07T00:59:19.537Z,3.20
2018-11-07T01:01:47.573Z,2.87
2018-11-07T01:04:16.521Z,3.13
2018-11-07T01:06:44.114Z,3.17
2018-11-07T01:09:12.651Z,3.07
2018-11-07T01:11:41.371Z,3.10
2018-11-07T01:14:09.787Z,2.90
2018-11-07T01:16:37.888Z,3.60
2018-11-07T01:19:05.801Z,4.00
2018-11-07T01:21:33.381Z,3.50
2018-11-07T01:24:00.966Z,3.70
2018-11-07T01:26:29.197Z,3.93
2018-11-07T01:28:57.785Z,3.97
2018-11-07T01:31:25.950Z,4.10
2018-11-07T01:33:55.165Z,3.90
2018-11-07T01:36:23.751Z,4.60
2018-11-07T01:38:51.373Z,4.03
2018-11-07T01:41:19.738Z,4.43
2018-11-07T01:43:47.713Z,4.10
2018-11-07T01:46:15.313Z,4.67
2018-11-07T01:48:44.373Z,4.70
2018-11-07T01:51:11.979Z,5.53
2018-11-07T01:53:40.688Z,5.70
2018-11-07T01:56:09.461Z,5.80
2018-11-07T01:58:37.669Z,5.40
2018-11-07T02:01:05.818Z,5.77
2018-11-07T02:03:33.369Z,6.10
2018-11-07T02:06:01.329Z,6.83
2018-11-07T02:08:30.883Z,8.70
2018-11-07T02:10:59.043Z,8.60
2018-11-07T02:13:27.395Z,6.90
2018-11-07T02:15:55.219Z,6.93
2018-11-07T02:18:22.778Z,7.60
2018-11-07T02:20:50.505Z,6.03
2018-11-07T02:23:18.043Z,5.10
2018-11-07T02:25:46.758Z,3.80
2018-11-07T02:28:14.391Z,3.40
2018-11-07T02:30:43.576Z,3.57
2018-11-07T02:33:11.109Z,3.57
2018-11-07T02:35:39.104Z,3.17
2018-11-07T02:38:06.628Z,3.50
2018-11-07T02:40:34.833Z,3.50
2018-11-07T02:43:03.379Z,3.93
2018-11-07T02:45:31.027Z,4.50
2018-11-07T02:47:59.078Z,3.90
2018-11-07T02:50:27.515Z,4.13
2018-11-07T02:52:55.052Z,4.57
2018-11-07T02:55:23.258Z,4.37
2018-11-07T02:57:50.802Z,3.90
2018-11-07T03:00:18.864Z,5.20
2018-11-07T03:02:46.527Z,3.60
2018-11-07T03:05:14.753Z,3.30
2018-11-07T03:07:42.265Z,4.10
2018-11-07T03:10:12.103Z,5.50
2018-11-07T03:12:41.053Z,4.47
2018-11-07T03:15:09.368Z,4.40
2018-11-07T03:17:37.243Z,3.40
2018-11-07T03:20:06.758Z,3.37
2018-11-07T03:22:34.715Z,3.70
2018-11-07T03:25:02.816Z,4.10
2018-11-07T03:27:30.339Z,3.70
2018-11-07T03:29:57.904Z,4.17
2018-11-07T03:32:26.453Z,4.60
2018-11-07T03:34:53.968Z,4.80
2018-11-07T03:37:21.508Z,4.97
2018-11-07T03:39:49.126Z,5.43
2018-11-07T03:42:17.632Z,4.30
2018-11-07T03:44:45.949Z,4.03
2018-11-07T03:47:15.012Z,3.80
2018-11-07T03:49:43.261Z,4.20
2018-11-07T03:52:11.584Z,3.70
2018-11-07T03:54:39.764Z,4.33
2018-11-07T03:57:07.284Z,4.10
2018-11-07T03:59:35.815Z,4.20
2018-11-07T04:02:03.473Z,4.10
2018-11-07T04:04:32.114Z,4.10
2018-11-07T04:06:59.802Z,3.90
2018-11-07T04:09:27.328Z,3.57
2018-11-07T04:11:54.875Z,3.37
2018-11-07T04:14:23.032Z,2.90
2018-11-07T04:16:51.955Z,3.00
2018-11-07T04:19:19.565Z,4.50
2018-11-07T04:21:50.734Z,4.43
2018-11-07T04:24:19.230Z,4.00
2018-11-07T04:26:46.784Z,3.73
2018-11-07T04:29:15.283Z,3.97
2018-11-07T04:31:44.345Z,3.63
2018-11-07T04:34:11.882Z,4.57
2018-11-07T04:36:40.766Z,4.97
2018-11-07T04:39:09.117Z,4.60
2018-11-07T04:41:37.824Z,4.60
2018-11-07T04:44:06.242Z,4.50
2018-11-07T04:46:34.483Z,5.10
2018-11-07T04:49:02.494Z,4.13
2018-11-07T04:51:30.033Z,3.70
2018-11-07T04:53:57.555Z,4.50
2018-11-07T04:56:25.600Z,4.20
2018-11-07T04:58:53.792Z,3.90
2018-11-07T05:01:22.044Z,4.53
2018-11-07T05:03:49.580Z,4.27
2018-11-07T05:06:17.889Z,4.37
2018-11-07T05:08:45.500Z,4.47
2018-11-07T05:11:13.044Z,4.30
2018-11-07T05:13:41.059Z,4.00
2018-11-07T05:16:09.361Z,3.97
2018-11-07T05:18:36.873Z,3.70
2018-11-07T05:21:05.021Z,4.00
2018-11-07T05:23:32.568Z,3.37
2018-11-07T05:26:01.456Z,4.87
2018-11-07T05:28:29.792Z,5.50
2018-11-07T05:30:57.898Z,4.80
2018-11-07T05:33:25.427Z,3.63
2018-11-07T05:35:52.971Z,4.97
2018-11-07T05:38:20.522Z,5.20
2018-11-07T05:40:48.765Z,5.10
2018-11-07T05:43:16.955Z,4.63
2018-11-07T05:45:44.516Z,4.20
2018-11-07T05:48:12.590Z,4.60
2018-11-07T05:50:40.210Z,3.70
2018-11-07T05:53:07.742Z,4.30
2018-11-07T05:55:35.797Z,3.80
2018-11-07T05:58:03.403Z,3.33
2018-11-07T06:00:32.364Z,5.80
2018-11-07T06:03:00.597Z,4.57
2018-11-07T06:05:28.824Z,3.93
2018-11-07T06:07:56.459Z,4.50
2018-11-07T06:10:23.999Z,3.47
2018-11-07T06:12:52.536Z,4.40
2018-11-07T06:15:20.073Z,4.30
2018-11-07T06:17:47.609Z,2.90
2018-11-07T06:20:15.161Z,4.30
2018-11-07T06:22:42.688Z,4.20
2018-11-07T06:25:10.952Z,4.60
2018-11-07T06:27:38.704Z,4.67
2018-11-07T06:30:09.030Z,5.47
2018-11-07T06:32:36.761Z,4.90
2018-11-07T06:35:05.999Z,5.00
2018-11-07T06:37:34.220Z,5.30
2018-11-07T06:40:03.427Z,6.57
2018-11-07T06:42:31.391Z,5.00
2018-11-07T06:44:59.339Z,6.20
2018-11-07T06:47:26.882Z,7.83
2018-11-07T06:49:55.475Z,11.20
2018-11-07T06:52:23.032Z,6.30
2018-11-07T06:54:51.051Z,7.47
2018-11-07T06:57:19.557Z,7.13
2018-11-07T06:59:47.858Z,8.83
2018-11-07T07:02:15.386Z,7.00
2018-11-07T07:04:44.355Z,6.90
2018-11-07T07:07:11.873Z,5.60
2018-11-07T07:09:39.390Z,6.70
2018-11-07T07:12:06.745Z,6.80
2018-11-07T07:14:34.268Z,5.40
2018-11-07T07:17:02.131Z,5.10
2018-11-07T07:19:29.762Z,6.70
2018-11-07T07:21:58.048Z,5.07
2018-11-07T07:24:26.348Z,6.60
2018-11-07T07:26:54.678Z,6.23
2018-11-07T07:29:22.359Z,5.43
2018-11-07T07:31:50.872Z,5.00
2018-11-07T07:34:19.371Z,6.50
2018-11-07T07:36:46.976Z,6.07
2018-11-07T07:39:15.400Z,9.90
2018-11-07T07:41:42.929Z,7.63
2018-11-07T07:44:10.457Z,6.10
2018-11-07T07:46:38.024Z,6.87
2018-11-07T07:49:06.232Z,5.53
2018-11-07T07:51:33.794Z,5.17
2018-11-07T07:54:01.390Z,7.20
2018-11-07T07:56:29.296Z,6.20
2018-11-07T07:58:58.179Z,6.47
2018-11-07T08:01:26.168Z,5.80
2018-11-07T08:03:53.728Z,5.70
2018-11-07T08:06:21.731Z,6.10
2018-11-07T08:08:49.283Z,5.40
2018-11-07T08:11:16.845Z,6.37
2018-11-07T08:13:45.475Z,7.90
2018-11-07T08:16:13.628Z,7.53
2018-11-07T08:18:41.481Z,6.43
2018-11-07T08:21:09.655Z,7.47
2018-11-07T08:23:37.110Z,7.70
2018-11-07T08:26:05.363Z,7.10
2018-11-07T08:28:33.672Z,6.50
2018-11-07T08:31:02.052Z,5.70
2018-11-07T08:33:30.331Z,5.53
2018-11-07T08:35:59.216Z,6.53
2018-11-07T08:38:26.799Z,7.00
2018-11-07T08:40:55.069Z,5.90
2018-11-07T08:43:23.545Z,6.27
2018-11-07T08:45:51.091Z,6.77
2018-11-07T08:48:19.997Z,5.20
2018-11-07T08:50:47.619Z,5.70
2018-11-07T08:53:15.204Z,5.40
2018-11-07T08:55:44.432Z,7.23
2018-11-07T08:58:12.536Z,6.70
2018-11-07T09:00:40.564Z,5.80
2018-11-07T09:03:08.128Z,6.60
2018-11-07T09:05:37.056Z,6.13
2018-11-07T09:08:04.691Z,6.40
2018-11-07T09:10:32.253Z,6.00
2018-11-07T09:13:00.664Z,6.43
2018-11-07T09:15:28.211Z,7.20
2018-11-07T09:17:57.168Z,7.60
2018-11-07T09:20:24.791Z,7.13
2018-11-07T09:22:52.415Z,6.87
2018-11-07T09:25:20.733Z,6.57
2018-11-07T09:27:49.539Z,6.93
2018-11-07T09:30:19.422Z,5.90
2018-11-07T09:32:47.623Z,5.63
2018-11-07T09:35:15.294Z,6.10
2018-11-07T09:37:42.842Z,6.47
2018-11-07T09:40:12.761Z,5.53
2018-11-07T09:42:41.544Z,5.50
2018-11-07T09:45:11.135Z,6.10
2018-11-07T09:47:39.496Z,6.00
2018-11-07T09:50:08.674Z,5.63
2018-11-07T09:52:36.694Z,5.57
2018-11-07T09:55:06.216Z,5.63
2018-11-07T09:57:33.728Z,5.80
2018-11-07T10:00:01.902Z,5.37
2018-11-07T10:02:29.428Z,6.07
2018-11-07T10:04:57.526Z,6.87
2018-11-07T10:07:25.068Z,6.27
2018-11-07T10:09:52.592Z,6.63
2018-11-07T10:12:20.328Z,5.40
2018-11-07T10:14:48.711Z,6.10
2018-11-07T10:17:17.475Z,5.40
2018-11-07T10:19:45.048Z,4.80
2018-11-07T10:22:12.728Z,4.80
2018-11-07T10:24:40.742Z,5.40
2018-11-07T10:27:09.002Z,4.93
2018-11-07T10:29:38.195Z,4.97
2018-11-07T10:32:06.446Z,5.00
2018-11-07T10:34:34.544Z,5.13
2018-11-07T10:37:02.762Z,5.30
2018-11-07T10:39:30.368Z,4.40
2018-11-07T10:41:58.873Z,4.57
2018-11-07T10:44:26.518Z,4.20
2018-11-07T10:46:54.024Z,4.70
2018-11-07T10:49:22.278Z,4.60
2018-11-07T10:51:49.876Z,5.30
2018-11-07T10:54:17.531Z,4.30
2018-11-07T10:56:46.307Z,3.90
2018-11-07T10:59:13.832Z,3.97
2018-11-07T11:01:48.615Z,4.30
2018-11-07T11:04:16.889Z,3.77
2018-11-07T11:06:44.491Z,3.60
2018-11-07T11:09:12.025Z,2.90
2018-11-07T11:11:39.671Z,2.67
2018-11-07T11:14:07.584Z,3.60
2018-11-07T11:16:35.867Z,3.20
2018-11-07T11:19:03.388Z,3.30
2018-11-07T11:21:30.976Z,3.40
2018-11-07T11:23:58.507Z,3.60
2018-11-07T11:26:27.270Z,2.50
2018-11-07T11:28:56.331Z,2.70
2018-11-07T11:31:23.911Z,2.33
2018-11-07T11:33:51.507Z,2.80
2018-11-07T11:36:19.064Z,3.40
2018-11-07T11:38:47.905Z,3.53
2018-11-07T11:41:15.509Z,3.00
2018-11-07T11:43:43.395Z,3.00
2018-11-07T11:46:10.983Z,2.60
2018-11-07T11:48:39.195Z,2.90
2018-11-07T11:51:07.017Z,2.57
2018-11-07T11:53:34.597Z,2.40
2018-11-07T11:56:02.437Z,2.10
2018-11-07T11:58:31.574Z,2.20
2018-11-07T12:01:00.395Z,1.80
2018-11-07T12:03:27.935Z,1.80
2018-11-07T12:05:56.248Z,1.67
2018-11-07T12:08:23.899Z,2.97
2018-11-07T12:10:52.769Z,3.40
2018-11-07T12:13:21.902Z,7.13
2018-11-07T12:15:49.409Z,15.10
2018-11-07T12:18:17.007Z,3.73
2018-11-07T12:20:45.111Z,3.00
2018-11-07T12:23:13.171Z,6.90
2018-11-07T12:25:41.053Z,10.23
2018-11-07T12:28:08.560Z,16.97
2018-11-07T12:30:36.128Z,5.80
2018-11-07T12:33:03.736Z,1.60
2018-11-07T12:35:31.352Z,1.20
2018-11-07T12:37:59.133Z,1.50
2018-11-07T12:40:27.373Z,1.40
2018-11-07T12:42:55.503Z,1.10
2018-11-07T12:45:23.000Z,1.23
2018-11-07T12:47:50.966Z,1.10
2018-11-07T12:50:20.168Z,1.40
2018-11-07T12:52:47.696Z,1.10
2018-11-07T12:55:16.963Z,1.27
2018-11-07T12:57:44.665Z,1.10
2018-11-07T13:00:17.286Z,1.40
2018-11-07T13:02:45.128Z,1.27
2018-11-07T13:05:14.244Z,1.50
2018-11-07T13:07:43.560Z,2.93
2018-11-07T13:10:12.932Z,2.20
2018-11-07T13:12:41.612Z,2.20
2018-11-07T13:15:10.147Z,2.53
2018-11-07T13:17:37.987Z,1.80
2018-11-07T13:20:11.809Z,1.60
2018-11-07T13:22:39.398Z,1.40
2018-11-07T13:25:08.942Z,1.23
2018-11-07T13:27:36.472Z,1.50
2018-11-07T13:30:05.488Z,1.70
2018-11-07T13:32:33.086Z,3.60
2018-11-07T13:35:01.318Z,4.53
2018-11-07T13:37:29.222Z,3.67
2018-11-07T13:39:57.056Z,2.00
2018-11-07T13:42:25.064Z,1.80
2018-11-07T13:44:52.595Z,2.53
2018-11-07T13:47:20.143Z,3.40
2018-11-07T13:49:48.694Z,2.57
2018-11-07T13:52:16.322Z,2.17
2018-11-07T13:54:44.681Z,5.10
2018-11-07T13:57:13.448Z,4.10
2018-11-07T13:59:41.200Z,2.70
2018-11-07T14:02:09.387Z,2.17
2018-11-07T14:04:37.603Z,2.73
2018-11-07T14:07:06.242Z,2.20
2018-11-07T14:09:33.934Z,2.03
2018-11-07T14:12:01.718Z,1.90
2018-11-07T14:14:29.827Z,2.20
2018-11-07T14:17:03.632Z,1.60
2018-11-07T14:19:33.265Z,2.00
2018-11-07T14:22:01.518Z,1.97
2018-11-07T14:24:30.427Z,2.03
2018-11-07T14:26:58.023Z,2.60
2018-11-07T14:29:26.332Z,2.80
2018-11-07T14:31:54.884Z,2.50
2018-11-07T14:34:23.607Z,2.03
2018-11-07T14:36:52.408Z,2.80
2018-11-07T14:39:20.241Z,2.10
2018-11-07T14:41:47.820Z,3.80
2018-11-07T14:44:15.505Z,3.90
2018-11-07T14:46:43.490Z,3.00
2018-11-07T14:49:12.212Z,3.80
2018-11-07T14:51:39.913Z,2.83
2018-11-07T14:54:11.016Z,3.47
2018-11-07T14:56:39.058Z,2.33
2018-11-07T14:59:06.984Z,2.20
2018-11-07T15:01:35.450Z,2.00
2018-11-07T15:04:04.740Z,1.90
2018-11-07T15:06:32.468Z,1.90
2018-11-07T15:09:00.130Z,2.47
2018-11-07T15:11:28.448Z,3.00
2018-11-07T15:13:56.150Z,2.83
2018-11-07T15:16:24.514Z,1.90
2018-11-07T15:18:52.616Z,2.90
2018-11-07T15:21:21.296Z,8.10
2018-11-07T15:23:49.910Z,6.47
2018-11-07T15:26:18.136Z,4.17
2018-11-07T15:28:45.819Z,3.13
2018-11-07T15:31:14.010Z,2.57
2018-11-07T15:33:41.769Z,4.57
2018-11-07T15:36:09.500Z,3.77
2018-11-07T15:38:37.321Z,5.93
2018-11-07T15:41:05.693Z,5.57
2018-11-07T15:43:33.831Z,6.00
2018-11-07T15:46:01.385Z,5.40
2018-11-07T15:48:29.444Z,4.17
2018-11-07T15:51:04.018Z,3.67
2018-11-07T15:53:33.013Z,3.20
2018-11-07T15:56:01.340Z,3.27
2018-11-07T15:58:30.288Z,3.73
2018-11-07T16:00:59.203Z,3.80
2018-11-07T16:03:32.465Z,3.80
2018-11-07T16:06:00.766Z,3.37
2018-11-07T16:08:29.271Z,4.83
2018-11-07T16:10:56.876Z,3.87
2018-11-07T16:13:25.392Z,3.60
2018-11-07T16:15:54.632Z,3.60
2018-11-07T16:18:22.225Z,6.60
2018-11-07T16:20:51.242Z,4.40
2018-11-07T16:23:18.773Z,4.60
2018-11-07T16:25:47.528Z,4.40
2018-11-07T16:28:15.209Z,3.70
2018-11-07T16:30:42.752Z,5.40
2018-11-07T16:33:11.158Z,5.40
2018-11-07T16:35:39.264Z,4.27
2018-11-07T16:38:07.497Z,4.67
2018-11-07T16:40:35.992Z,4.30
2018-11-07T16:43:04.644Z,6.20
2018-11-07T16:45:32.825Z,3.77
2018-11-07T16:48:00.830Z,3.30
2018-11-07T16:50:28.384Z,4.20
2018-11-07T16:52:55.959Z,3.40
2018-11-07T16:55:25.040Z,4.87
2018-11-07T16:57:54.283Z,4.37
2018-11-07T17:00:22.136Z,4.83
2018-11-07T17:02:51.595Z,3.87
2018-11-07T17:05:20.209Z,3.93
2018-11-07T17:07:48.987Z,3.27
2018-11-07T17:10:17.968Z,2.50
2018-11-07T17:12:46.209Z,2.40
2018-11-07T17:15:14.956Z,1.63
2018-11-07T17:17:42.793Z,1.53
2018-11-07T17:20:12.664Z,1.37
2018-11-07T17:22:41.932Z,1.10
2018-11-07T17:25:13.448Z,1.07
2018-11-07T17:27:43.149Z,1.10
2018-11-07T17:30:12.440Z,1.30
2018-11-07T17:32:43.664Z,1.87
2018-11-07T17:35:12.955Z,2.40
2018-11-07T17:37:41.571Z,1.50
2018-11-07T17:40:13.976Z,2.27
2018-11-07T17:42:42.975Z,1.73
2018-11-07T17:45:13.608Z,1.90
2018-11-07T17:47:42.504Z,1.90
2018-11-07T17:50:12.608Z,1.50
2018-11-07T17:52:40.455Z,1.40
2018-11-07T17:55:09.688Z,1.50
2018-11-07T17:57:37.263Z,1.37
2018-11-07T18:00:08.299Z,2.10
2018-11-07T18:02:36.856Z,2.30
2018-11-07T18:05:05.464Z,1.80
2018-11-07T18:07:35.076Z,1.20
2018-11-07T18:10:02.694Z,1.60
2018-11-07T18:12:30.779Z,1.30
2018-11-07T18:14:58.330Z,1.70
2018-11-07T18:17:25.871Z,1.63
2018-11-07T18:19:53.540Z,1.10
2018-11-07T18:22:21.088Z,1.17
2018-11-07T18:24:49.415Z,1.80
2018-11-07T18:27:17.024Z,1.00
2018-11-07T18:29:45.509Z,1.53
2018-11-07T18:32:13.206Z,1.30
2018-11-07T18:34:40.801Z,1.10
2018-11-07T18:37:08.582Z,1.50
2018-11-07T18:39:38.122Z,1.43
2018-11-07T18:42:05.709Z,1.43
2018-11-07T18:44:33.675Z,1.50
2018-11-07T18:47:01.163Z,1.70
2018-11-07T18:49:30.423Z,1.47
2018-11-07T18:51:57.969Z,1.50
2018-11-07T18:54:26.678Z,1.33
2018-11-07T18:56:54.207Z,1.10
2018-11-07T18:59:23.924Z,1.23
2018-11-07T19:01:51.828Z,1.70
2018-11-07T19:04:20.227Z,1.33
2018-11-07T19:06:48.585Z,1.80
2018-11-07T19:09:16.679Z,1.50
2018-11-07T19:11:44.200Z,1.80
2018-11-07T19:14:12.541Z,1.40
2018-11-07T19:16:40.064Z,1.50
2018-11-07T19:19:08.197Z,1.90
2018-11-07T19:21:35.778Z,1.10
2018-11-07T19:24:05.469Z,1.57
2018-11-07T19:26:34.439Z,1.30
2018-11-07T19:29:02.385Z,1.67
2018-11-07T19:31:29.903Z,1.40
2018-11-07T19:33:57.527Z,1.70
2018-11-07T19:36:25.615Z,1.50
2018-11-07T19:38:53.691Z,1.33
2018-11-07T19:41:21.778Z,1.30
2018-11-07T19:43:49.322Z,2.10
2018-11-07T19:46:17.838Z,1.63
2018-11-07T19:48:45.889Z,1.50
2018-11-07T19:51:14.491Z,1.33
2018-11-07T19:53:42.554Z,1.40
2018-11-07T19:56:10.743Z,1.80
2018-11-07T19:58:38.331Z,1.10
2018-11-07T20:01:07.383Z,1.40
2018-11-07T20:03:35.702Z,1.20
2018-11-07T20:06:04.682Z,1.10
2018-11-07T20:08:33.555Z,1.70
2018-11-07T20:11:01.813Z,1.80
2018-11-07T20:13:29.362Z,1.57
2018-11-07T20:15:56.997Z,1.50
2018-11-07T20:18:24.575Z,1.10
2018-11-07T20:20:52.243Z,1.50
2018-11-07T20:23:21.047Z,1.43
2018-11-07T20:25:50.563Z,1.67
2018-11-07T20:28:18.699Z,1.43
2018-11-07T20:30:48.127Z,2.00
2018-11-07T20:33:15.800Z,1.70
2018-11-07T20:35:43.558Z,1.67
2018-11-07T20:38:11.585Z,1.50
2018-11-07T20:40:39.306Z,1.30
2018-11-07T20:43:06.841Z,1.80
2018-11-07T20:45:36.243Z,2.00
2018-11-07T20:48:04.965Z,1.60
2018-11-07T20:50:33.327Z,1.40
2018-11-07T20:53:00.946Z,1.60
2018-11-07T20:55:29.723Z,1.80
2018-11-07T20:57:57.313Z,2.70
2018-11-07T21:00:26.152Z,2.40
2018-11-07T21:02:54.089Z,2.20
2018-11-07T21:05:22.709Z,1.90
2018-11-07T21:07:50.282Z,2.10
2018-11-07T21:10:19.015Z,2.10
2018-11-07T21:12:47.159Z,1.83
2018-11-07T21:15:16.743Z,2.10
2018-11-07T21:17:45.178Z,1.90
2018-11-07T21:20:14.115Z,2.10
2018-11-07T21:22:42.355Z,2.50
2018-11-07T21:25:10.798Z,2.70
2018-11-07T21:27:38.461Z,3.80
2018-11-07T21:30:08.787Z,3.00
2018-11-07T21:32:36.970Z,2.70
2018-11-07T21:35:05.308Z,2.90
2018-11-07T21:37:32.802Z,4.10
2018-11-07T21:40:01.263Z,2.97
2018-11-07T21:42:30.642Z,3.40
2018-11-07T21:44:58.168Z,3.10
2018-11-07T21:47:25.957Z,2.80
2018-11-07T21:49:53.935Z,3.90
2018-11-07T21:52:21.435Z,4.20
2018-11-07T21:54:49.841Z,3.77
2018-11-07T21:57:17.307Z,4.20
2018-11-07T21:59:45.555Z,3.37
2018-11-07T22:02:13.672Z,3.43
2018-11-07T22:04:41.796Z,3.10
2018-11-07T22:07:09.342Z,3.00
2018-11-07T22:09:37.432Z,2.93
2018-11-07T22:12:05.032Z,3.00
2018-11-07T22:14:33.342Z,3.27
2018-11-07T22:17:00.884Z,3.20
2018-11-07T22:19:28.461Z,3.37
2018-11-07T22:21:57.867Z,4.23
2018-11-07T22:24:26.231Z,4.90
2018-11-07T22:26:53.771Z,3.60
2018-11-07T22:29:21.282Z,3.30
2018-11-07T22:31:48.826Z,3.30
2018-11-07T22:34:16.354Z,3.20
2018-11-07T22:36:44.231Z,3.20
2018-11-07T22:39:13.589Z,4.10
2018-11-07T22:41:42.036Z,3.93
2018-11-07T22:44:11.286Z,3.73
2018-11-07T22:46:38.992Z,3.80
2018-11-07T22:49:06.967Z,3.20
2018-11-07T22:51:35.251Z,3.87
2018-11-07T22:54:03.429Z,3.37
2018-11-07T22:56:31.422Z,3.43
2018-11-07T22:58:58.960Z,3.20
2018-11-07T23:01:33.842Z,3.10
2018-11-07T23:04:01.923Z,3.07
2018-11-07T23:06:29.462Z,3.50
2018-11-07T23:08:57.122Z,3.30
2018-11-07T23:11:24.803Z,2.90
2018-11-07T23:13:53.208Z,2.80
2018-11-07T23:16:21.494Z,2.90
2018-11-07T23:18:49.016Z,2.90
2018-11-07T23:21:16.542Z,3.10
2018-11-07T23:23:44.144Z,3.00
2018-11-07T23:26:12.497Z,2.70
2018-11-07T23:28:40.011Z,3.50
2018-11-07T23:31:08.304Z,3.63
2018-11-07T23:33:35.794Z,2.73
2018-11-07T23:36:03.376Z,2.83
2018-11-07T23:38:31.510Z,3.70
2018-11-07T23:40:59.706Z,3.50
2018-11-07T23:43:27.967Z,3.20
2018-11-07T23:45:55.667Z,3.07
2018-11-07T23:48:23.799Z,3.40
2018-11-07T23:50:51.296Z,3.30
2018-11-07T23:53:19.655Z,4.23
2018-11-07T23:55:48.355Z,3.57
2018-11-07T23:58:17.580Z,4.10
